DAOV

Details ICAO DAOV (MUW)
Name GHRISS
Region Algeria
Timezone Africa/Algiers (UTC+1.0)
Plans Departing 3
Arriving 2
Stats Elevation 1,686 ft / 514 m (AMSL)
Location 35.207725° 0.147143°
Runways 1
Magnetic Variation 0.375° E
Sunrise 2018-05-26 04:50:06 UTC / 2018-05-26 05:50:06 Local
Sunset 2018-05-26 19:05:41 UTC / 2018-05-26 20:05:41 Local
Advertisement - Login to hide

Runways

ID Width Length Bearing (true) Bearing (mag) Surface Threshold Offset Overrun Length
08 98 ft / 30 m 5,564 ft / 1,696 m 79.88° 79.50° Asphalt 0 ft / 0 m 0 ft / 0 m
26 98 ft / 30 m 5,564 ft / 1,696 m 259.89° 259.51° Asphalt 0 ft / 0 m 0 ft / 0 m

Map

Weather


0- 5 10 15 20 25 30 35+ Temperature / ° C

Clouds and Precipitation
Forecast for 2018-05-26 18:00 UTC. Updated 3 hours ago

Ground ~20,000 ft ~40,000 ft Winds

METAR

DAOV 262000Z 36008KT 9999 SCT026 SCT100 18/10 Q1013

TAF

Not found

Frequencies

Tower 119.70 MHz TWR
Warning: Do not use this data for real-world aviation or navigation. No guarantee of current accuracy is given.